createdAt,value
2022-08-18T00:00:57.229Z,25.10
2022-08-18T00:03:27.154Z,27.00
2022-08-18T00:06:10.736Z,26.33
2022-08-18T00:08:38.670Z,26.55
2022-08-18T00:11:06.432Z,27.73
2022-08-18T00:13:33.161Z,27.13
2022-08-18T00:15:59.753Z,26.10
2022-08-18T00:18:26.311Z,27.27
2022-08-18T00:20:53.107Z,26.52
2022-08-18T00:25:38.144Z,29.17
2022-08-18T00:28:05.881Z,27.30
2022-08-18T00:30:32.775Z,29.33
2022-08-18T00:33:01.337Z,25.50
2022-08-18T00:35:34.834Z,28.05
2022-08-18T00:38:04.239Z,28.48
2022-08-18T00:40:38.961Z,29.17
2022-08-18T00:43:08.189Z,30.13
2022-08-18T00:45:43.043Z,28.50
2022-08-18T00:48:11.275Z,30.83
2022-08-18T00:51:07.548Z,30.48
2022-08-18T00:53:42.068Z,28.67
2022-08-18T00:56:13.527Z,30.27
2022-08-18T00:58:52.088Z,28.83
2022-08-18T01:01:25.979Z,29.40
2022-08-18T01:03:58.552Z,28.52
2022-08-18T01:06:33.208Z,31.10
2022-08-18T01:09:00.300Z,29.83
2022-08-18T01:11:28.165Z,30.15
2022-08-18T01:13:55.316Z,31.40
2022-08-18T01:16:52.359Z,34.30
2022-08-18T01:19:43.045Z,31.80
2022-08-18T01:22:49.765Z,34.33
2022-08-18T01:25:38.268Z,31.98
2022-08-18T01:28:05.789Z,28.77
2022-08-18T01:30:44.123Z,33.47
2022-08-18T01:33:12.265Z,33.60
2022-08-18T01:35:43.193Z,34.20
2022-08-18T01:41:23.172Z,34.00
2022-08-18T01:43:19.056Z,34.67
2022-08-18T01:45:45.753Z,40.15
2022-08-18T01:48:12.376Z,37.03
2022-08-18T01:50:41.296Z,35.28
2022-08-18T01:53:08.451Z,37.40
2022-08-18T01:55:37.056Z,34.05
2022-08-18T01:58:04.785Z,32.63
2022-08-18T02:00:32.370Z,35.88
2022-08-18T02:03:02.628Z,35.90
2022-08-18T02:05:36.457Z,35.15
2022-08-18T02:08:05.445Z,38.22
2022-08-18T02:10:33.425Z,37.42
2022-08-18T02:13:00.109Z,39.10
2022-08-18T02:15:28.070Z,40.00
2022-08-18T02:17:54.767Z,38.88
2022-08-18T02:20:21.626Z,40.33
2022-08-18T02:22:49.526Z,40.95
2022-08-18T02:25:17.438Z,34.78
2022-08-18T02:27:45.866Z,33.03
2022-08-18T02:30:15.522Z,33.13
2022-08-18T02:32:42.577Z,34.30
2022-08-18T02:35:11.802Z,34.35
2022-08-18T02:37:42.759Z,33.70
2022-08-18T02:40:15.498Z,40.40
2022-08-18T02:42:44.383Z,40.50
2022-08-18T02:45:12.731Z,37.30
2022-08-18T02:47:39.855Z,29.98
2022-08-18T02:50:07.901Z,31.15
2022-08-18T02:52:38.369Z,30.77
2022-08-18T02:55:07.599Z,31.05
2022-08-18T02:57:34.244Z,30.30
2022-08-18T03:00:00.818Z,31.02
2022-08-18T03:02:27.785Z,32.72
2022-08-18T03:04:54.354Z,31.35
2022-08-18T03:07:21.068Z,31.70
2022-08-18T03:09:47.622Z,33.53
2022-08-18T03:12:14.238Z,35.20
2022-08-18T03:14:40.824Z,36.88
2022-08-18T03:17:09.401Z,38.03
2022-08-18T03:19:36.762Z,38.63
2022-08-18T03:22:05.856Z,42.83
2022-08-18T03:24:52.572Z,43.42
2022-08-18T03:27:19.182Z,44.83
2022-08-18T03:29:45.742Z,46.17
2022-08-18T03:32:12.327Z,46.25
2022-08-18T03:34:39.020Z,43.17
2022-08-18T03:37:05.682Z,41.53
2022-08-18T03:39:32.493Z,40.33
2022-08-18T03:42:01.594Z,41.15
2022-08-18T03:44:36.596Z,41.63
2022-08-18T03:47:04.299Z,39.38
2022-08-18T03:52:00.621Z,36.70
2022-08-18T03:54:28.477Z,32.67
2022-08-18T03:56:55.979Z,30.02
2022-08-18T03:59:25.447Z,29.55
2022-08-18T04:01:54.923Z,29.23
2022-08-18T04:04:25.054Z,26.35
2022-08-18T04:06:58.445Z,28.63
2022-08-18T04:09:28.040Z,27.92
2022-08-18T04:11:55.417Z,29.48
2022-08-18T04:14:24.957Z,33.72
2022-08-18T04:16:52.093Z,35.42
2022-08-18T04:19:27.367Z,37.13
2022-08-18T04:21:58.304Z,40.45
2022-08-18T04:24:28.138Z,41.88
2022-08-18T04:27:00.985Z,34.95
2022-08-18T04:29:29.185Z,36.55
2022-08-18T04:31:56.122Z,35.90
2022-08-18T04:34:22.930Z,30.85
2022-08-18T04:36:53.852Z,31.88
2022-08-18T04:39:21.795Z,29.40
2022-08-18T04:44:07.424Z,29.95
2022-08-18T04:46:49.531Z,29.45
2022-08-18T04:49:18.891Z,30.92
2022-08-18T04:54:16.364Z,31.35
2022-08-18T04:56:43.543Z,36.80
2022-08-18T04:59:14.276Z,36.45
2022-08-18T05:01:47.519Z,36.00
2022-08-18T05:04:16.201Z,37.13
2022-08-18T05:06:44.797Z,37.83
2022-08-18T05:09:16.880Z,37.03
2022-08-18T05:11:51.009Z,34.17
2022-08-18T05:14:18.651Z,34.42
2022-08-18T05:16:48.138Z,35.70
2022-08-18T05:19:21.869Z,38.22
2022-08-18T05:21:52.183Z,37.03
2022-08-18T05:24:20.676Z,38.38
2022-08-18T05:26:48.962Z,37.42
2022-08-18T05:31:29.009Z,38.72
2022-08-18T05:36:43.589Z,37.13
2022-08-18T05:39:25.145Z,38.10
2022-08-18T05:42:07.562Z,38.53
2022-08-18T05:44:43.060Z,41.10
2022-08-18T05:47:16.126Z,38.95
2022-08-18T05:49:49.092Z,38.42
2022-08-18T05:52:27.636Z,41.13
2022-08-18T05:57:22.450Z,41.15
2022-08-18T05:59:53.812Z,41.25
2022-08-18T06:02:38.568Z,41.20
2022-08-18T06:05:12.767Z,40.53
2022-08-18T06:07:49.121Z,39.63
2022-08-18T06:10:16.276Z,38.65
2022-08-18T06:12:53.491Z,35.13
2022-08-18T06:15:33.925Z,36.00
2022-08-18T06:18:26.501Z,36.40
2022-08-18T06:21:04.917Z,34.03
2022-08-18T06:23:40.487Z,30.13
2022-08-18T06:26:18.406Z,32.58
2022-08-18T06:29:05.241Z,32.03
2022-08-18T06:32:01.259Z,31.65
2022-08-18T06:35:12.031Z,32.90
2022-08-18T06:38:19.061Z,30.13
2022-08-18T06:40:48.697Z,28.60
2022-08-18T06:43:17.113Z,29.23
2022-08-18T06:45:51.812Z,30.70
2022-08-18T06:48:37.631Z,29.02
2022-08-18T06:51:07.845Z,25.48
2022-08-18T06:54:01.710Z,25.10
2022-08-18T06:56:34.996Z,26.42
2022-08-18T06:59:16.145Z,26.20
2022-08-18T07:01:44.263Z,24.48
2022-08-18T07:04:33.612Z,25.83
2022-08-18T07:07:13.553Z,22.15
2022-08-18T07:09:40.431Z,23.45
2022-08-18T07:12:09.404Z,21.52
2022-08-18T07:14:52.565Z,22.75
2022-08-18T07:17:42.471Z,22.73
2022-08-18T07:20:31.244Z,21.27
2022-08-18T07:23:01.026Z,21.80
2022-08-18T07:25:46.653Z,21.20
2022-08-18T07:28:33.777Z,19.77
2022-08-18T07:31:25.005Z,19.92
2022-08-18T07:36:19.544Z,20.33
2022-08-18T07:41:38.789Z,19.60
2022-08-18T07:44:16.431Z,18.70
2022-08-18T07:46:58.661Z,19.52
2022-08-18T07:49:33.399Z,19.20
2022-08-18T07:52:36.164Z,17.92
2022-08-18T07:55:29.007Z,19.83
2022-08-18T07:58:23.408Z,17.05
2022-08-18T08:01:09.537Z,20.17
2022-08-18T08:04:25.486Z,19.10
2022-08-18T08:07:23.968Z,19.95
2022-08-18T08:10:00.429Z,18.25
2022-08-18T08:12:39.928Z,18.23
2022-08-18T08:15:27.626Z,17.80
2022-08-18T08:18:18.558Z,16.40
2022-08-18T08:20:57.536Z,16.10
2022-08-18T08:23:46.019Z,16.67
2022-08-18T08:26:21.724Z,16.60
2022-08-18T08:28:55.919Z,15.32
2022-08-18T08:33:50.325Z,14.82
2022-08-18T08:36:25.681Z,15.60
2022-08-18T08:38:58.101Z,13.35
2022-08-18T08:41:36.089Z,13.07
2022-08-18T08:44:21.540Z,14.02
2022-08-18T08:47:13.033Z,14.07
2022-08-18T08:50:00.409Z,13.70
2022-08-18T08:52:35.167Z,14.05
2022-08-18T08:55:14.739Z,14.82
2022-08-18T08:57:49.780Z,13.15
2022-08-18T09:00:16.794Z,13.85
2022-08-18T09:02:52.257Z,13.60
2022-08-18T09:05:24.912Z,14.15
2022-08-18T09:08:20.182Z,14.30
2022-08-18T09:11:08.478Z,15.20
2022-08-18T09:14:08.414Z,13.85
2022-08-18T09:16:49.120Z,14.63
2022-08-18T09:19:59.232Z,14.90
2022-08-18T09:22:42.310Z,15.88
2022-08-18T09:25:11.373Z,15.32
2022-08-18T09:28:10.060Z,14.98
2022-08-18T09:30:55.196Z,14.32
2022-08-18T09:33:40.648Z,15.70
2022-08-18T09:36:21.101Z,15.75
2022-08-18T09:39:18.586Z,14.13
2022-08-18T09:42:01.688Z,14.88
2022-08-18T09:44:48.680Z,15.25
2022-08-18T09:47:22.227Z,15.63
2022-08-18T09:50:26.946Z,15.52
2022-08-18T09:52:57.759Z,14.95
2022-08-18T09:55:24.408Z,14.83
2022-08-18T09:58:14.972Z,14.73
2022-08-18T10:00:46.540Z,15.38
2022-08-18T10:03:25.731Z,15.60
2022-08-18T10:06:05.100Z,15.38
2022-08-18T10:09:14.723Z,14.48
2022-08-18T10:12:40.318Z,16.02
2022-08-18T10:15:13.128Z,14.68
2022-08-18T10:18:01.645Z,14.63
2022-08-18T10:20:47.641Z,13.93
2022-08-18T10:25:34.287Z,15.00
2022-08-18T10:28:05.393Z,16.42
2022-08-18T10:30:56.264Z,14.27
2022-08-18T10:33:56.977Z,13.93
2022-08-18T10:36:58.967Z,16.00
2022-08-18T10:42:33.672Z,16.45
2022-08-18T10:45:12.445Z,14.25
2022-08-18T10:47:42.843Z,16.55
2022-08-18T10:50:23.004Z,15.90
2022-08-18T10:53:40.553Z,14.45
2022-08-18T10:56:16.868Z,15.30
2022-08-18T10:59:08.427Z,14.30
2022-08-18T11:02:16.457Z,14.27
2022-08-18T11:07:38.718Z,14.68
2022-08-18T11:13:46.628Z,12.80
2022-08-18T11:16:37.882Z,12.18
2022-08-18T11:19:12.758Z,13.88
2022-08-18T11:21:43.415Z,12.02
2022-08-18T11:24:13.448Z,11.93
2022-08-18T11:30:12.068Z,11.70
2022-08-18T11:32:51.439Z,12.50
2022-08-18T11:35:21.908Z,11.60
2022-08-18T11:37:56.117Z,10.15
2022-08-18T11:43:41.700Z,13.15
2022-08-18T11:46:29.362Z,12.05
2022-08-18T11:49:00.029Z,11.80
2022-08-18T11:51:32.244Z,12.80
2022-08-18T11:54:01.011Z,11.55
2022-08-18T11:59:52.981Z,11.45
2022-08-18T12:02:17.465Z,12.57
2022-08-18T12:04:44.647Z,11.65
2022-08-18T12:07:20.500Z,11.05
2022-08-18T12:10:28.421Z,11.68
2022-08-18T12:12:57.529Z,11.27
2022-08-18T12:15:46.588Z,10.00
2022-08-18T12:18:26.473Z,10.88
2022-08-18T12:21:05.405Z,10.77
2022-08-18T12:23:39.095Z,9.95
2022-08-18T12:26:27.344Z,10.30
2022-08-18T12:29:01.230Z,10.95
2022-08-18T12:31:29.140Z,10.23
2022-08-18T12:37:00.812Z,10.75
2022-08-18T12:41:56.214Z,9.55
2022-08-18T12:44:29.157Z,10.23
2022-08-18T12:46:56.040Z,10.73
2022-08-18T12:49:25.498Z,10.68
2022-08-18T12:54:55.557Z,9.80
2022-08-18T12:57:33.499Z,11.13
2022-08-18T13:00:18.748Z,10.63
2022-08-18T13:05:12.505Z,10.07
2022-08-18T13:09:54.654Z,9.80
2022-08-18T13:12:22.469Z,9.27
2022-08-18T13:19:33.393Z,10.30
2022-08-18T13:22:00.468Z,9.25
2022-08-18T13:24:27.424Z,10.50
2022-08-18T13:26:55.497Z,9.65
2022-08-18T13:29:22.220Z,9.40
2022-08-18T13:31:55.840Z,8.57
2022-08-18T13:34:29.831Z,10.85
2022-08-18T13:36:57.440Z,9.13
2022-08-18T13:39:24.830Z,8.98
2022-08-18T13:42:01.381Z,8.95
2022-08-18T13:44:52.864Z,9.10
2022-08-18T13:47:20.161Z,8.68
2022-08-18T13:49:57.986Z,9.98
2022-08-18T13:52:34.847Z,8.45
2022-08-18T13:55:08.368Z,9.73
2022-08-18T13:57:36.741Z,8.77
2022-08-18T14:00:06.442Z,9.48
2022-08-18T14:02:40.427Z,10.10
2022-08-18T14:05:09.331Z,9.25
2022-08-18T14:07:38.393Z,10.35
2022-08-18T14:10:13.292Z,9.38
2022-08-18T14:12:41.309Z,9.77
2022-08-18T14:15:11.838Z,9.90
2022-08-18T14:17:39.257Z,9.60
2022-08-18T14:20:27.586Z,9.00
2022-08-18T14:23:21.807Z,9.77
2022-08-18T14:26:09.934Z,10.00
2022-08-18T14:28:38.450Z,10.15
2022-08-18T14:31:08.603Z,9.82
2022-08-18T14:33:50.577Z,10.13
2022-08-18T14:36:19.544Z,9.07
2022-08-18T14:38:46.418Z,9.70
2022-08-18T14:41:19.137Z,8.65
2022-08-18T14:44:11.473Z,9.18
2022-08-18T14:46:34.719Z,9.43
2022-08-18T14:49:03.920Z,9.40
2022-08-18T14:51:33.641Z,9.32
2022-08-18T14:54:01.985Z,9.80
2022-08-18T14:56:29.733Z,10.73
2022-08-18T14:59:01.000Z,10.15
2022-08-18T15:01:27.782Z,9.63
2022-08-18T15:04:18.604Z,9.63
2022-08-18T15:06:56.555Z,9.90
2022-08-18T15:09:26.997Z,10.10
2022-08-18T15:11:56.343Z,10.87
2022-08-18T15:14:33.118Z,9.88
2022-08-18T15:17:11.849Z,9.90
2022-08-18T15:19:58.373Z,10.00
2022-08-18T15:22:45.012Z,10.32
2022-08-18T15:25:30.183Z,10.48
2022-08-18T15:27:57.655Z,9.32
2022-08-18T15:30:26.321Z,9.82
2022-08-18T15:32:53.799Z,9.68
2022-08-18T15:35:20.630Z,9.82
2022-08-18T15:37:51.096Z,9.30
2022-08-18T15:40:30.836Z,9.38
2022-08-18T15:43:09.710Z,9.98
2022-08-18T15:45:42.917Z,9.85
2022-08-18T15:48:12.611Z,9.88
2022-08-18T15:50:40.428Z,10.93
2022-08-18T15:53:11.532Z,9.50
2022-08-18T15:55:40.648Z,9.15
2022-08-18T15:58:11.215Z,9.20
2022-08-18T16:00:42.683Z,10.40
2022-08-18T16:03:14.410Z,10.00
2022-08-18T16:05:53.440Z,9.40
2022-08-18T16:08:23.543Z,10.25
2022-08-18T16:10:50.823Z,9.85
2022-08-18T16:13:17.869Z,10.68
2022-08-18T16:15:48.071Z,9.48
2022-08-18T16:18:18.640Z,10.52
2022-08-18T16:20:45.977Z,10.30
2022-08-18T16:23:13.648Z,9.88
2022-08-18T16:25:42.133Z,10.48
2022-08-18T16:28:09.467Z,10.88
2022-08-18T16:30:36.316Z,11.45
2022-08-18T16:33:04.892Z,10.32
2022-08-18T16:35:33.088Z,11.00
2022-08-18T16:38:05.768Z,11.07
2022-08-18T16:40:35.193Z,10.68
2022-08-18T16:43:01.799Z,9.32
2022-08-18T16:45:28.747Z,9.77
2022-08-18T16:47:55.625Z,9.70
2022-08-18T16:50:23.529Z,9.85
2022-08-18T16:52:50.199Z,9.57
2022-08-18T16:55:17.049Z,9.70
2022-08-18T16:58:03.075Z,9.35
2022-08-18T17:00:54.465Z,10.70
2022-08-18T17:05:43.139Z,9.98
2022-08-18T17:08:09.763Z,10.57
2022-08-18T17:10:37.909Z,9.77
2022-08-18T17:13:06.446Z,9.95
2022-08-18T17:15:33.777Z,10.10
2022-08-18T17:18:01.228Z,10.82
2022-08-18T17:20:27.846Z,8.93
2022-08-18T17:22:55.315Z,9.18
2022-08-18T17:25:24.979Z,9.90
2022-08-18T17:27:51.747Z,9.23
2022-08-18T17:30:22.679Z,8.82
2022-08-18T17:32:54.932Z,8.45
2022-08-18T17:38:11.890Z,9.30
2022-08-18T17:41:07.649Z,9.57
2022-08-18T17:43:38.162Z,9.48
2022-08-18T17:46:27.080Z,9.30
2022-08-18T17:49:05.925Z,10.35
2022-08-18T17:51:44.387Z,9.35
2022-08-18T17:54:36.399Z,9.45
2022-08-18T18:00:13.841Z,10.63
2022-08-18T18:02:42.581Z,11.45
2022-08-18T18:05:14.265Z,10.75
2022-08-18T18:10:14.317Z,11.52
2022-08-18T18:12:41.452Z,11.75
2022-08-18T18:15:11.907Z,11.13
2022-08-18T18:17:43.287Z,10.32
2022-08-18T18:20:40.384Z,10.50
2022-08-18T18:23:19.452Z,10.50
2022-08-18T18:25:46.396Z,10.20
2022-08-18T18:28:34.215Z,10.65
2022-08-18T18:31:21.461Z,12.55
2022-08-18T18:33:55.993Z,11.40
2022-08-18T18:36:35.150Z,11.00
2022-08-18T18:39:14.697Z,11.73
2022-08-18T18:41:41.696Z,10.57
2022-08-18T18:44:10.664Z,13.13
2022-08-18T18:46:49.424Z,12.40
2022-08-18T18:49:26.670Z,11.23
2022-08-18T18:52:19.253Z,11.93
2022-08-18T18:55:14.704Z,11.93
2022-08-18T18:58:11.356Z,12.05
2022-08-18T19:00:53.561Z,12.35
2022-08-18T19:03:28.684Z,11.25
2022-08-18T19:06:08.232Z,10.90
2022-08-18T19:08:39.558Z,11.75
2022-08-18T19:11:19.345Z,11.15
2022-08-18T19:13:57.876Z,10.68
2022-08-18T19:16:33.807Z,11.35
2022-08-18T19:19:36.948Z,11.80
2022-08-18T19:22:06.711Z,11.23
2022-08-18T19:24:40.768Z,12.38
2022-08-18T19:27:17.675Z,11.85
2022-08-18T19:29:53.300Z,11.10
2022-08-18T19:32:35.869Z,12.65
2022-08-18T19:35:10.563Z,11.27
2022-08-18T19:37:47.979Z,12.18
2022-08-18T19:40:26.420Z,12.48
2022-08-18T19:42:58.555Z,10.40
2022-08-18T19:45:36.552Z,11.65
2022-08-18T19:48:39.296Z,11.80
2022-08-18T19:51:26.816Z,11.13
2022-08-18T19:53:59.156Z,12.15
2022-08-18T19:56:47.349Z,13.00
2022-08-18T19:59:34.032Z,12.40
2022-08-18T20:02:29.181Z,11.73
2022-08-18T20:05:18.585Z,12.77
2022-08-18T20:08:15.493Z,12.32
2022-08-18T20:11:41.835Z,11.00
2022-08-18T20:14:15.045Z,11.63
2022-08-18T20:16:44.904Z,11.45
2022-08-18T20:19:50.036Z,12.02
2022-08-18T20:22:22.041Z,11.98
2022-08-18T20:24:59.629Z,10.85
2022-08-18T20:27:39.788Z,11.23
2022-08-18T20:30:50.613Z,12.25
2022-08-18T20:33:30.571Z,11.18
2022-08-18T20:36:24.101Z,11.13
2022-08-18T20:38:54.529Z,12.02
2022-08-18T20:41:26.446Z,11.85
2022-08-18T20:44:13.209Z,12.63
2022-08-18T20:46:56.893Z,11.82
2022-08-18T20:49:45.028Z,13.93
2022-08-18T20:52:29.542Z,12.07
2022-08-18T20:55:30.789Z,12.85
2022-08-18T20:58:05.585Z,10.90
2022-08-18T21:00:37.379Z,13.18
2022-08-18T21:03:12.539Z,11.38
2022-08-18T21:05:43.631Z,13.15
2022-08-18T21:08:16.511Z,12.95
2022-08-18T21:10:52.251Z,13.27
2022-08-18T21:13:31.093Z,12.85
2022-08-18T21:15:59.289Z,13.30
2022-08-18T21:18:27.032Z,11.82
2022-08-18T21:20:57.943Z,13.50
2022-08-18T21:23:39.229Z,13.73
2022-08-18T21:26:14.670Z,15.30
2022-08-18T21:28:46.052Z,14.68
2022-08-18T21:31:42.575Z,14.05
2022-08-18T21:34:28.517Z,15.05
2022-08-18T21:36:57.978Z,16.00
2022-08-18T21:39:25.251Z,16.17
2022-08-18T21:41:55.055Z,16.77
2022-08-18T21:44:24.895Z,16.08
2022-08-18T21:47:05.503Z,17.33
2022-08-18T21:49:33.901Z,16.70
2022-08-18T21:52:00.839Z,16.23
2022-08-18T21:54:34.551Z,18.05
2022-08-18T21:57:18.489Z,17.50
2022-08-18T22:00:20.521Z,17.80
2022-08-18T22:02:51.090Z,16.02
2022-08-18T22:05:58.578Z,17.63
2022-08-18T22:08:46.611Z,17.65
2022-08-18T22:12:01.084Z,16.90
2022-08-18T22:14:35.857Z,17.50
2022-08-18T22:17:52.045Z,18.30
2022-08-18T22:20:39.812Z,18.88
2022-08-18T22:23:34.074Z,18.95
2022-08-18T22:26:17.569Z,18.80
2022-08-18T22:28:52.930Z,18.27
2022-08-18T22:31:21.510Z,20.17
2022-08-18T22:33:50.311Z,18.20
2022-08-18T22:36:25.465Z,18.83
2022-08-18T22:38:52.408Z,20.40
2022-08-18T22:41:20.411Z,19.20
2022-08-18T22:43:48.409Z,19.02
2022-08-18T22:46:21.665Z,19.40
2022-08-18T22:48:52.210Z,18.92
2022-08-18T22:51:22.403Z,19.23
2022-08-18T22:53:48.963Z,19.50
2022-08-18T22:56:15.569Z,19.95
2022-08-18T22:58:49.401Z,20.45
2022-08-18T23:01:17.903Z,20.92
2022-08-18T23:03:44.554Z,19.50
2022-08-18T23:08:32.307Z,20.20
2022-08-18T23:11:12.668Z,21.38
2022-08-18T23:13:40.929Z,19.27
2022-08-18T23:16:30.892Z,20.92
2022-08-18T23:18:56.324Z,21.05
2022-08-18T23:21:35.121Z,19.65
2022-08-18T23:24:06.439Z,20.38
2022-08-18T23:26:34.292Z,21.42
2022-08-18T23:29:01.748Z,21.33
2022-08-18T23:31:30.295Z,18.80
2022-08-18T23:33:58.853Z,21.20
2022-08-18T23:36:25.530Z,20.23
2022-08-18T23:38:54.001Z,21.83
2022-08-18T23:41:21.639Z,21.05
2022-08-18T23:43:49.392Z,20.27
2022-08-18T23:46:22.001Z,20.50
2022-08-18T23:48:52.863Z,21.77
2022-08-18T23:51:34.756Z,21.73
2022-08-18T23:54:07.671Z,20.25
2022-08-18T23:56:35.591Z,20.90
